This is the latest recevied weather packets stored in our database for station/object OM6ABF-12. If no packets are shown the sender has not sent any weather packets the latest 1 day(s).
| Time | Temp. | Humidity | Pressure | Rain* | Wind** | Luminosity | Snow |
|---|---|---|---|---|---|---|---|
| 1778053396 | 13.89° C | 56% | 1020.6 hPa | - | - | - | - |
| 1778051479 | 11.11° C | 65% | 1020.4 hPa | - | - | - | - |
| 1778049563 | 8.33° C | 78% | 1020.5 hPa | - | - | - | - |
| 1778048606 | 7.78° C | 79% | 1020.3 hPa | - | - | - | - |
| 1778046690 | 7.22° C | 83% | 1020 hPa | - | - | - | - |
| 1778045734 | 6.67° C | 84% | 1020 hPa | - | - | - | - |
| 1778044776 | 6.11° C | 85% | 1019.9 hPa | - | - | - | - |
| 1778043818 | 6.11° C | 85% | 1019.9 hPa | - | - | - | - |
| 1778042860 | 6.11° C | 85% | 1019.9 hPa | - | - | - | - |
| 1778041903 | 6.11° C | 85% | 1019.8 hPa | - | - | - | - |
| 1778040951 | 6.11° C | 84% | 1019.5 hPa | - | - | - | - |
| 1778039988 | 6.11° C | 84% | 1019.4 hPa | - | - | - | - |
| 1778039030 | 6.11° C | 83% | 1019.3 hPa | - | - | - | - |
| 1778038073 | 6.11° C | 83% | 1019.2 hPa | - | - | - | - |
| 1778037117 | 6.11° C | 82% | 1019.2 hPa | - | - | - | - |
| 1778036159 | 6.67° C | 81% | 1019.1 hPa | - | - | - | - |
| 1778035201 | 6.67° C | 81% | 1019.2 hPa | - | - | - | - |
| 1778034242 | 6.67° C | 80% | 1019.4 hPa | - | - | - | - |
| 1778032326 | 6.67° C | 78% | 1019.4 hPa | - | - | - | - |
| 1778031370 | 6.67° C | 78% | 1019.2 hPa | - | - | - | - |
| 1778030412 | 6.67° C | 77% | 1019.2 hPa | - | - | - | - |
| 1778029979 | 6.67° C | 77% | 1019.4 hPa | - | - | - | - |
| 1778028497 | 7.22° C | 76% | 1019.4 hPa | - | - | - | - |
| 1778026582 | 7.22° C | 72% | 1019.5 hPa | - | - | - | - |
| 1778020839 | 8.33° C | 62% | 1019.8 hPa | - | - | - | - |
* Rain since midnight (hover to see other rain measurements)
** Current wind speed in m/s (hover to see current wind gust speed)